Main page
METAR-TAF:

METAR-TAF

Airports :

Cairo, Egypt

Cairo International Airport

latitude: 30-08N, longitude: 031-24E, elevation: 64 m

Current weather observation

The report was made 44 minutes ago, at 15:30 UTC
Wind 3 kt from the North/Northwest
Temperature 21°C
Humidity 64%
Pressure 1011 hPa
Visibility 10 km or more
Scattered clouds at a height of 2500 ft
Broken clouds at a height of 7000 ft

METAR: HECA 251530Z 34003KT 9999 SCT025 BKN070 21/14 Q1011 NOSIG

Time: 18:14 (16:14 UTC)

Forecast

The report was made 4 hours and 4 minutes ago, at 12:10 UTC
Forecast valid from 25 at 13 UTC to 26 at 18 UTC
Wind 8 kt from the West/Northwest with gusts up to 20 kt
Visibility 10 km or more
Scattered clouds at a height of 2500 ft
Temporary
from 25 at 13 UTC to 25 at 18 UTC
Visibility: 5000 m
Scattered clouds at a height of 2500 ft, Cumulonimbus.
Broken clouds at a height of 7000 ft

TAF: HECA 251210Z 2513/2618 30008G20KT 9999 SCT025 TEMPO 2513/2518 5000 TSSHRA SCT025CB BKN070

Weather observations and forecasts of more than 4000 airports (METAR and TAF reports).

The available stations are represented by yellow and red dots on the map.

Hover mouse over dot to see the name of the station.

Then click to see weather observations and forecasts.

To change the map : click on the green buttons with a black cross to zoom in, on the green button with a dash to zoom out, or on the green arrows for adjacent maps.


METAR-TAF: